createdAt,value
2023-04-16T00:00:56.339Z,99963.88
2023-04-16T00:03:25.183Z,99971.88
2023-04-16T00:05:55.957Z,99972.88
2023-04-16T00:08:25.531Z,99973.06
2023-04-16T00:10:55.545Z,99976.53
2023-04-16T00:13:23.963Z,99977.38
2023-04-16T00:15:52.645Z,99984.16
2023-04-16T00:18:21.535Z,99980.69
2023-04-16T00:20:50.931Z,99974.38
2023-04-16T00:23:20.054Z,99981.31
2023-04-16T00:25:48.661Z,99976.84
2023-04-16T00:28:17.105Z,99981.50
2023-04-16T00:30:45.686Z,99991.97
2023-04-16T00:33:14.216Z,99981.31
2023-04-16T00:35:44.961Z,99990.81
2023-04-16T00:38:13.836Z,99988.97
2023-04-16T00:40:42.427Z,99989.97
2023-04-16T00:43:11.319Z,99992.63
2023-04-16T00:45:40.089Z,99983.66
2023-04-16T00:48:13.945Z,99987.31
2023-04-16T00:50:42.522Z,99994.47
2023-04-16T00:53:13.363Z,99986.84
2023-04-16T00:55:42.126Z,99992.16
2023-04-16T00:58:10.713Z,99991.31
2023-04-16T01:00:39.559Z,99996.63
2023-04-16T01:03:08.568Z,99991.31
2023-04-16T01:05:38.190Z,99986.63
2023-04-16T01:08:07.171Z,99988.66
2023-04-16T01:10:35.723Z,99992.31
2023-04-16T01:13:04.173Z,99994.97
2023-04-16T01:15:32.687Z,99996.84
2023-04-16T01:18:01.398Z,99997.63
2023-04-16T01:20:30.497Z,100005.63
2023-04-16T01:22:58.991Z,100006.44
2023-04-16T01:25:27.522Z,100001.13
2023-04-16T01:27:57.373Z,100009.78
2023-04-16T01:30:26.081Z,100005.25
2023-04-16T01:32:54.616Z,100013.25
2023-04-16T01:35:23.173Z,100010.41
2023-04-16T01:37:54.386Z,100010.25
2023-04-16T01:40:22.796Z,100019.03
2023-04-16T01:42:52.008Z,100013.09
2023-04-16T01:45:20.276Z,100014.91
2023-04-16T01:47:50.175Z,100013.44
2023-04-16T01:50:20.079Z,100015.44
2023-04-16T01:52:48.662Z,100017.28
2023-04-16T01:55:16.926Z,100021.75
2023-04-16T01:57:45.414Z,100015.78
2023-04-16T02:00:13.936Z,100017.63
2023-04-16T02:02:42.588Z,100021.28
2023-04-16T02:05:10.881Z,100022.13
2023-04-16T02:07:39.069Z,100018.78
2023-04-16T02:10:10.401Z,100015.31
2023-04-16T02:12:38.888Z,100013.47
2023-04-16T02:15:07.720Z,100016.97
2023-04-16T02:17:36.359Z,100014.28
2023-04-16T02:20:06.815Z,100021.44
2023-04-16T02:22:35.455Z,100026.75
2023-04-16T02:25:03.934Z,100025.28
2023-04-16T02:27:32.333Z,100024.09
2023-04-16T02:30:00.858Z,100028.44
2023-04-16T02:32:29.387Z,100033.75
2023-04-16T02:34:58.145Z,100041.72
2023-04-16T02:37:26.259Z,100032.91
2023-04-16T02:39:54.718Z,100028.44
2023-04-16T02:42:23.247Z,100031.91
2023-04-16T02:44:51.714Z,100039.06
2023-04-16T02:47:20.174Z,100043.56
2023-04-16T02:49:48.594Z,100041.72
2023-04-16T02:52:17.072Z,100036.25
2023-04-16T02:54:45.537Z,100041.56
2023-04-16T02:57:13.986Z,100038.06
2023-04-16T02:59:42.636Z,100039.06
2023-04-16T03:02:11.454Z,100041.09
2023-04-16T03:04:39.971Z,100039.25
2023-04-16T03:07:09.155Z,100049.72
2023-04-16T03:09:37.734Z,100043.22
2023-04-16T03:12:06.453Z,100041.22
2023-04-16T03:14:34.927Z,100049.84
2023-04-16T03:17:03.611Z,100053.16
2023-04-16T03:19:32.066Z,100055.00
2023-04-16T03:22:00.905Z,100048.66
2023-04-16T03:24:29.800Z,100055.81
2023-04-16T03:27:03.503Z,100047.19
2023-04-16T03:29:31.962Z,100055.69
2023-04-16T03:32:00.425Z,100052.84
2023-04-16T03:34:29.028Z,100061.66
2023-04-16T03:36:57.566Z,100067.97
2023-04-16T03:39:25.994Z,100064.34
2023-04-16T03:41:54.582Z,100067.16
2023-04-16T03:44:23.281Z,100064.50
2023-04-16T03:46:51.869Z,100066.31
2023-04-16T03:49:20.478Z,100068.16
2023-04-16T03:51:48.890Z,100074.50
2023-04-16T03:54:17.460Z,100073.00
2023-04-16T03:56:45.588Z,100073.84
2023-04-16T03:59:20.241Z,100080.50
2023-04-16T04:01:48.743Z,100081.50
2023-04-16T04:04:23.300Z,100095.97
2023-04-16T04:06:51.778Z,100090.81
2023-04-16T04:09:20.267Z,100090.00
2023-04-16T04:11:49.023Z,100093.47
2023-04-16T04:14:17.093Z,100102.28
2023-04-16T04:16:45.758Z,100104.78
2023-04-16T04:19:14.350Z,100094.78
2023-04-16T04:21:42.789Z,100103.59
2023-04-16T04:24:11.444Z,100109.75
2023-04-16T04:26:39.851Z,100114.72
2023-04-16T04:29:08.846Z,100105.75
2023-04-16T04:31:37.545Z,100099.41
2023-04-16T04:34:06.049Z,100113.41
2023-04-16T04:36:35.873Z,100114.19
2023-04-16T04:39:04.023Z,100111.72
2023-04-16T04:41:32.551Z,100116.84
2023-04-16T04:44:01.419Z,100123.00
2023-04-16T04:46:29.887Z,100120.53
2023-04-16T04:48:58.374Z,100125.88
2023-04-16T04:51:27.151Z,100121.53
2023-04-16T04:53:55.604Z,100128.53
2023-04-16T04:56:24.069Z,100136.50
2023-04-16T04:58:52.707Z,100136.50
2023-04-16T05:01:20.883Z,100135.47
2023-04-16T05:03:49.741Z,100138.13
2023-04-16T05:06:18.611Z,100146.13
2023-04-16T05:08:47.075Z,100148.78
2023-04-16T05:11:15.843Z,100148.63
2023-04-16T05:13:44.361Z,100146.97
2023-04-16T05:16:12.804Z,100146.13
2023-04-16T05:18:40.950Z,100142.66
2023-04-16T05:21:12.070Z,100153.28
2023-04-16T05:23:40.557Z,100171.09
2023-04-16T05:26:08.987Z,100160.44
2023-04-16T05:28:37.405Z,100158.78
2023-04-16T05:31:06.078Z,100172.91
2023-04-16T05:33:34.606Z,100166.59
2023-04-16T05:36:08.366Z,100169.91
2023-04-16T05:38:37.352Z,100169.75
2023-04-16T05:41:05.844Z,100170.56
2023-04-16T05:43:33.935Z,100173.06
2023-04-16T05:46:02.430Z,100178.38
2023-04-16T05:48:31.105Z,100177.72
2023-04-16T05:50:59.505Z,100180.41
2023-04-16T05:53:28.110Z,100179.38
2023-04-16T05:55:56.766Z,100186.03
2023-04-16T05:58:25.258Z,100191.19
2023-04-16T06:00:53.792Z,100193.66
2023-04-16T06:03:22.397Z,100191.50
2023-04-16T06:05:50.548Z,100195.47
2023-04-16T06:08:19.158Z,100192.28
2023-04-16T06:10:48.704Z,100203.59
2023-04-16T06:13:17.136Z,100204.25
2023-04-16T06:15:45.711Z,100209.41
2023-04-16T06:18:24.248Z,100197.09
2023-04-16T06:20:52.688Z,100207.75
2023-04-16T06:23:21.292Z,100210.56
2023-04-16T06:25:49.796Z,100208.09
2023-04-16T06:28:18.297Z,100209.91
2023-04-16T06:30:47.728Z,100219.91
2023-04-16T06:33:16.322Z,100222.56
2023-04-16T06:35:45.443Z,100226.88
2023-04-16T06:38:13.915Z,100226.06
2023-04-16T06:40:42.459Z,100234.06
2023-04-16T06:43:11.101Z,100224.22
2023-04-16T06:45:58.260Z,100231.22
2023-04-16T06:48:26.811Z,100234.69
2023-04-16T06:50:55.883Z,100226.53
2023-04-16T06:53:25.012Z,100233.53
2023-04-16T06:55:53.781Z,100236.03
2023-04-16T06:58:22.492Z,100239.50
2023-04-16T07:00:50.951Z,100247.47
2023-04-16T07:03:19.700Z,100240.34
2023-04-16T07:05:48.272Z,100254.34
2023-04-16T07:08:16.701Z,100254.34
2023-04-16T07:10:45.258Z,100248.00
2023-04-16T07:13:13.703Z,100255.00
2023-04-16T07:15:41.900Z,100253.00
2023-04-16T07:18:12.755Z,100258.16
2023-04-16T07:23:43.410Z,100260.47
2023-04-16T07:26:17.765Z,100266.13
2023-04-16T07:28:46.318Z,100267.97
2023-04-16T07:31:14.961Z,100274.91
2023-04-16T07:33:43.474Z,100273.44
2023-04-16T07:36:12.403Z,100276.94
2023-04-16T07:38:40.760Z,100278.59
2023-04-16T07:41:11.143Z,100277.09
2023-04-16T07:43:39.646Z,100280.94
2023-04-16T07:46:08.342Z,100289.25
2023-04-16T07:48:37.017Z,100285.13
2023-04-16T07:51:05.965Z,100293.09
2023-04-16T07:53:47.381Z,100302.91
2023-04-16T07:56:15.857Z,100297.78
2023-04-16T07:58:44.409Z,100304.06
2023-04-16T08:01:12.884Z,100302.91
2023-04-16T08:03:41.527Z,100304.06
2023-04-16T08:06:10.069Z,100310.06
2023-04-16T08:08:38.458Z,100304.09
2023-04-16T08:11:06.979Z,100307.91
2023-04-16T08:13:35.424Z,100304.56
2023-04-16T08:16:03.946Z,100316.38
2023-04-16T08:18:31.931Z,100316.72
2023-04-16T08:21:00.431Z,100318.56
2023-04-16T08:23:29.703Z,100323.22
2023-04-16T08:25:58.122Z,100325.03
2023-04-16T08:28:26.554Z,100322.22
2023-04-16T08:30:55.078Z,100332.03
2023-04-16T08:33:23.609Z,100328.19
2023-04-16T08:35:52.060Z,100330.00
2023-04-16T08:38:20.550Z,100334.34
2023-04-16T08:41:01.777Z,100338.34
2023-04-16T08:43:35.753Z,100342.66
2023-04-16T08:46:17.973Z,100350.66
2023-04-16T08:48:50.953Z,100347.34
2023-04-16T08:51:20.781Z,100344.50
2023-04-16T08:54:02.213Z,100350.81
2023-04-16T08:56:30.973Z,100360.97
2023-04-16T08:59:02.056Z,100365.44
2023-04-16T09:01:30.798Z,100359.63
2023-04-16T09:03:59.627Z,100359.44
2023-04-16T09:06:29.358Z,100363.25
2023-04-16T09:08:59.357Z,100361.59
2023-04-16T09:11:27.807Z,100365.44
2023-04-16T09:13:56.253Z,100372.75
2023-04-16T09:16:26.458Z,100375.75
2023-04-16T09:18:54.958Z,100365.44
2023-04-16T09:21:24.108Z,100369.59
2023-04-16T09:23:54.558Z,100379.41
2023-04-16T09:26:23.000Z,100379.06
2023-04-16T09:28:51.953Z,100380.75
2023-04-16T09:31:22.760Z,100373.75
2023-04-16T09:34:07.848Z,100386.41
2023-04-16T09:36:37.745Z,100391.06
2023-04-16T09:39:06.301Z,100391.19
2023-04-16T09:41:38.234Z,100394.56
2023-04-16T09:44:06.813Z,100393.06
2023-04-16T09:46:47.153Z,100398.03
2023-04-16T09:49:17.337Z,100397.69
2023-04-16T09:51:52.862Z,100394.69
2023-04-16T09:54:21.516Z,100397.88
2023-04-16T09:56:50.028Z,100394.22
2023-04-16T09:59:23.308Z,100403.69
2023-04-16T10:01:57.245Z,100403.88
2023-04-16T10:04:54.050Z,100413.84
2023-04-16T10:07:23.182Z,100406.72
2023-04-16T10:09:52.665Z,100418.66
2023-04-16T10:12:21.798Z,100422.03
2023-04-16T10:14:50.635Z,100420.38
2023-04-16T10:17:19.470Z,100416.38
2023-04-16T10:19:47.969Z,100425.22
2023-04-16T10:22:16.538Z,100431.66
2023-04-16T10:24:45.541Z,100427.47
2023-04-16T10:27:13.965Z,100433.78
2023-04-16T10:29:43.715Z,100441.47
2023-04-16T10:32:12.411Z,100427.81
2023-04-16T10:34:41.090Z,100439.97
2023-04-16T10:37:09.308Z,100446.84
2023-04-16T10:39:38.492Z,100440.00
2023-04-16T10:42:12.286Z,100436.19
2023-04-16T10:44:45.286Z,100441.69
2023-04-16T10:47:15.321Z,100437.66
2023-04-16T10:49:44.642Z,100447.00
2023-04-16T10:52:18.019Z,100446.47
2023-04-16T10:54:47.890Z,100443.31
2023-04-16T10:57:21.496Z,100446.63
2023-04-16T10:59:50.518Z,100446.97
2023-04-16T11:02:20.001Z,100446.66
2023-04-16T11:04:50.372Z,100447.97
2023-04-16T11:07:21.481Z,100453.47
2023-04-16T11:10:07.293Z,100449.81
2023-04-16T11:12:48.386Z,100449.63
2023-04-16T11:15:19.266Z,100453.28
2023-04-16T11:17:51.778Z,100445.59
2023-04-16T11:20:29.868Z,100444.94
2023-04-16T11:22:59.403Z,100450.94
2023-04-16T11:25:30.849Z,100449.94
2023-04-16T11:27:59.915Z,100447.59
2023-04-16T11:30:35.939Z,100457.09
2023-04-16T11:33:11.310Z,100462.75
2023-04-16T11:35:43.427Z,100462.59
2023-04-16T11:38:12.200Z,100462.78
2023-04-16T11:40:40.757Z,100464.63
2023-04-16T11:43:18.393Z,100473.59
2023-04-16T11:46:16.744Z,100472.78
2023-04-16T11:48:56.727Z,100474.94
2023-04-16T11:51:27.996Z,100473.78
2023-04-16T11:53:56.303Z,100474.78
2023-04-16T11:56:33.350Z,100478.94
2023-04-16T11:59:23.128Z,100478.28
2023-04-16T12:01:55.724Z,100484.44
2023-04-16T12:04:29.584Z,100480.09
2023-04-16T12:07:14.762Z,100482.59
2023-04-16T12:09:45.086Z,100487.44
2023-04-16T12:12:32.278Z,100484.09
2023-04-16T12:15:03.706Z,100484.59
2023-04-16T12:17:34.908Z,100487.25
2023-04-16T12:20:11.551Z,100482.25
2023-04-16T12:22:49.606Z,100490.91
2023-04-16T12:25:19.352Z,100492.44
2023-04-16T12:27:56.479Z,100494.91
2023-04-16T12:30:27.202Z,100493.91
2023-04-16T12:33:16.604Z,100499.03
2023-04-16T12:35:45.158Z,100501.72
2023-04-16T12:38:15.282Z,100499.06
2023-04-16T12:40:45.643Z,100499.75
2023-04-16T12:43:14.658Z,100502.75
2023-04-16T12:45:43.536Z,100501.56
2023-04-16T12:48:12.018Z,100506.72
2023-04-16T12:50:40.781Z,100492.75
2023-04-16T12:53:09.422Z,100499.22
2023-04-16T12:55:37.985Z,100502.22
2023-04-16T12:58:06.704Z,100505.06
2023-04-16T13:00:35.230Z,100497.22
2023-04-16T13:03:03.855Z,100504.56
2023-04-16T13:05:32.466Z,100501.41
2023-04-16T13:08:00.984Z,100510.56
2023-04-16T13:10:29.694Z,100507.72
2023-04-16T13:12:58.164Z,100515.06
2023-04-16T13:15:26.678Z,100509.88
2023-04-16T13:17:55.381Z,100504.25
2023-04-16T13:20:24.620Z,100512.72
2023-04-16T13:22:53.278Z,100510.38
2023-04-16T13:25:22.145Z,100510.38
2023-04-16T13:27:50.812Z,100512.38
2023-04-16T13:30:19.376Z,100509.72
2023-04-16T13:32:47.853Z,100520.53
2023-04-16T13:35:16.353Z,100520.00
2023-04-16T13:37:44.886Z,100514.50
2023-04-16T13:40:13.480Z,100517.84
2023-04-16T13:42:42.497Z,100514.34
2023-04-16T13:45:11.383Z,100520.50
2023-04-16T13:47:43.159Z,100520.50
2023-04-16T13:50:12.059Z,100519.31
2023-04-16T13:52:40.537Z,100516.97
2023-04-16T13:55:13.838Z,100524.44
2023-04-16T13:57:42.841Z,100519.94
2023-04-16T14:00:13.238Z,100526.56
2023-04-16T14:02:46.004Z,100534.41
2023-04-16T14:05:14.617Z,100529.91
2023-04-16T14:07:43.234Z,100530.22
2023-04-16T14:10:12.299Z,100533.44
2023-04-16T14:12:41.310Z,100528.09
2023-04-16T14:15:10.775Z,100533.44
2023-04-16T14:17:39.319Z,100545.13
2023-04-16T14:20:08.301Z,100538.97
2023-04-16T14:22:36.934Z,100539.81
2023-04-16T14:25:05.947Z,100533.16
2023-04-16T14:27:35.861Z,100529.50
2023-04-16T14:30:04.944Z,100535.00
2023-04-16T14:32:33.553Z,100537.50
2023-04-16T14:35:02.189Z,100533.66
2023-04-16T14:37:30.652Z,100530.84
2023-04-16T14:39:59.223Z,100539.03
2023-04-16T14:42:28.355Z,100542.19
2023-04-16T14:44:56.994Z,100541.53
2023-04-16T14:47:25.571Z,100541.88
2023-04-16T14:49:54.795Z,100533.19
2023-04-16T14:52:23.355Z,100539.84
2023-04-16T14:54:52.386Z,100546.19
2023-04-16T14:57:21.011Z,100538.84
2023-04-16T14:59:49.595Z,100542.34
2023-04-16T15:02:18.499Z,100545.69
2023-04-16T15:04:47.396Z,100539.34
2023-04-16T15:07:16.034Z,100539.34
2023-04-16T15:09:44.597Z,100546.00
2023-04-16T15:12:13.143Z,100542.47
2023-04-16T15:14:41.687Z,100548.34
2023-04-16T15:17:10.532Z,100554.31
2023-04-16T15:19:38.997Z,100547.31
2023-04-16T15:22:07.489Z,100556.81
2023-04-16T15:24:36.002Z,100557.97
2023-04-16T15:27:07.685Z,100549.47
2023-04-16T15:29:37.714Z,100553.16
2023-04-16T15:32:07.052Z,100552.31
2023-04-16T15:34:35.780Z,100560.47
2023-04-16T15:37:04.645Z,100564.13
2023-04-16T15:39:33.276Z,100553.13
2023-04-16T15:42:04.017Z,100567.16
2023-04-16T15:44:33.828Z,100558.47
2023-04-16T15:47:02.644Z,100565.59
2023-04-16T15:49:31.235Z,100559.25
2023-04-16T15:51:59.950Z,100558.59
2023-04-16T15:54:28.492Z,100562.91
2023-04-16T15:56:57.018Z,100564.75
2023-04-16T15:59:28.282Z,100569.44
2023-04-16T16:01:57.426Z,100570.09
2023-04-16T16:04:26.698Z,100570.78
2023-04-16T16:06:55.682Z,100575.47
2023-04-16T16:09:26.950Z,100575.47
2023-04-16T16:11:56.172Z,100570.78
2023-04-16T16:14:24.795Z,100576.09
2023-04-16T16:16:53.433Z,100584.13
2023-04-16T16:19:22.012Z,100583.00
2023-04-16T16:21:50.682Z,100589.81
2023-04-16T16:24:19.306Z,100580.34
2023-04-16T16:26:47.884Z,100582.16
2023-04-16T16:29:16.372Z,100594.63
2023-04-16T16:31:45.068Z,100586.66
2023-04-16T16:34:20.439Z,100593.47
2023-04-16T16:39:41.202Z,100594.13
2023-04-16T16:42:09.784Z,100597.81
2023-04-16T16:44:38.595Z,100597.47
2023-04-16T16:47:10.119Z,100595.78
2023-04-16T16:49:38.785Z,100594.09
2023-04-16T16:52:07.404Z,100606.47
2023-04-16T16:54:35.980Z,100611.47
2023-04-16T16:57:04.629Z,100603.13
2023-04-16T16:59:33.125Z,100611.13
2023-04-16T17:02:02.208Z,100602.44
2023-04-16T17:04:30.732Z,100606.63
2023-04-16T17:06:59.272Z,100607.44
2023-04-16T17:09:33.638Z,100610.25
2023-04-16T17:12:02.212Z,100603.94
2023-04-16T17:14:30.854Z,100607.72
2023-04-16T17:16:59.521Z,100609.41
2023-04-16T17:19:28.068Z,100614.59
2023-04-16T17:21:56.504Z,100613.75
2023-04-16T17:24:25.068Z,100622.91
2023-04-16T17:26:53.550Z,100616.88
2023-04-16T17:29:26.096Z,100623.44
2023-04-16T17:31:55.060Z,100630.09
2023-04-16T17:34:24.106Z,100625.56
2023-04-16T17:36:53.093Z,100624.91
2023-04-16T17:39:21.959Z,100627.91
2023-04-16T17:41:54.323Z,100635.75
2023-04-16T17:44:25.759Z,100633.06
2023-04-16T17:46:54.290Z,100641.22
2023-04-16T17:49:22.832Z,100643.34
2023-04-16T17:51:51.433Z,100646.66
2023-04-16T17:54:20.030Z,100646.53
2023-04-16T17:56:48.616Z,100650.16
2023-04-16T17:59:17.963Z,100651.72
2023-04-16T18:01:48.544Z,100650.22
2023-04-16T18:04:17.654Z,100651.38
2023-04-16T18:06:46.760Z,100653.22
2023-04-16T18:09:16.997Z,100658.53
2023-04-16T18:11:45.681Z,100657.19
2023-04-16T18:14:19.801Z,100669.50
2023-04-16T18:16:49.243Z,100663.00
2023-04-16T18:19:17.923Z,100674.66
2023-04-16T18:21:46.722Z,100666.50
2023-04-16T18:24:16.241Z,100676.31
2023-04-16T18:26:46.831Z,100672.34
2023-04-16T18:29:17.160Z,100679.50
2023-04-16T18:31:46.642Z,100679.50
2023-04-16T18:34:15.499Z,100690.16
2023-04-16T18:36:44.044Z,100675.69
2023-04-16T18:39:12.442Z,100689.97
2023-04-16T18:41:43.857Z,100693.66
2023-04-16T18:44:19.942Z,100678.34
2023-04-16T18:46:59.200Z,100688.66
2023-04-16T18:49:28.425Z,100701.97
2023-04-16T18:51:56.933Z,100696.81
2023-04-16T18:54:25.399Z,100697.50
2023-04-16T18:56:53.841Z,100700.16
2023-04-16T18:59:38.263Z,100704.13
2023-04-16T19:02:07.337Z,100701.00
2023-04-16T19:04:35.469Z,100706.13
2023-04-16T19:07:04.054Z,100713.16
2023-04-16T19:09:32.093Z,100713.03
2023-04-16T19:12:00.533Z,100712.84
2023-04-16T19:14:29.023Z,100711.88
2023-04-16T19:16:57.536Z,100710.84
2023-04-16T19:19:25.614Z,100712.38
2023-04-16T19:21:54.214Z,100710.72
2023-04-16T19:24:23.657Z,100715.88
2023-04-16T19:26:51.893Z,100720.88
2023-04-16T19:29:20.364Z,100710.38
2023-04-16T19:31:48.597Z,100713.06
2023-04-16T19:34:16.809Z,100719.22
2023-04-16T19:36:45.950Z,100719.34
2023-04-16T19:39:14.407Z,100713.50
2023-04-16T19:41:43.002Z,100711.88
2023-04-16T19:44:11.674Z,100711.88
2023-04-16T19:46:40.145Z,100715.50
2023-04-16T19:49:08.778Z,100720.00
2023-04-16T19:51:38.687Z,100721.00
2023-04-16T19:54:07.177Z,100722.84
2023-04-16T19:56:35.868Z,100716.97
2023-04-16T19:59:04.035Z,100720.28
2023-04-16T20:01:32.552Z,100728.28
2023-04-16T20:04:00.723Z,100724.94
2023-04-16T20:06:28.803Z,100728.44
2023-04-16T20:08:57.940Z,100731.75
2023-04-16T20:11:26.701Z,100735.22
2023-04-16T20:13:56.251Z,100735.72
2023-04-16T20:16:24.921Z,100729.88
2023-04-16T20:18:54.417Z,100731.38
2023-04-16T20:21:23.000Z,100734.69
2023-04-16T20:23:51.533Z,100730.91
2023-04-16T20:26:19.634Z,100737.88
2023-04-16T20:28:48.323Z,100732.56
2023-04-16T20:31:19.584Z,100733.25
2023-04-16T20:33:48.126Z,100733.56
2023-04-16T20:36:16.609Z,100732.03
2023-04-16T20:38:45.148Z,100735.41
2023-04-16T20:41:20.280Z,100727.56
2023-04-16T20:43:50.243Z,100727.56
2023-04-16T20:46:49.415Z,100732.88
2023-04-16T20:49:18.665Z,100725.06
2023-04-16T20:51:47.212Z,100730.22
2023-04-16T20:54:15.760Z,100733.06
2023-04-16T20:56:44.898Z,100737.53
2023-04-16T20:59:13.968Z,100732.34
2023-04-16T21:01:42.463Z,100735.00
2023-04-16T21:04:11.367Z,100746.69
2023-04-16T21:06:43.229Z,100748.63
2023-04-16T21:09:11.983Z,100743.31
2023-04-16T21:11:40.248Z,100736.03
2023-04-16T21:14:08.714Z,100734.66
2023-04-16T21:16:36.830Z,100745.97
2023-04-16T21:19:05.026Z,100745.13
2023-04-16T21:21:33.680Z,100746.47
2023-04-16T21:24:01.785Z,100739.47
2023-04-16T21:26:30.386Z,100750.78
2023-04-16T21:28:58.897Z,100743.63
2023-04-16T21:31:28.002Z,100746.16
2023-04-16T21:33:56.666Z,100748.13
2023-04-16T21:36:26.591Z,100749.28
2023-04-16T21:38:55.146Z,100755.69
2023-04-16T21:41:23.581Z,100750.22
2023-04-16T21:43:51.575Z,100746.56
2023-04-16T21:46:20.816Z,100743.44
2023-04-16T21:48:49.758Z,100748.91
2023-04-16T21:51:18.201Z,100744.34
2023-04-16T21:53:58.057Z,100740.94
2023-04-16T21:56:27.174Z,100745.41
2023-04-16T21:58:55.213Z,100744.59
2023-04-16T22:01:23.711Z,100742.38
2023-04-16T22:03:52.745Z,100754.19
2023-04-16T22:06:21.465Z,100755.84
2023-04-16T22:08:50.491Z,100748.84
2023-04-16T22:11:19.298Z,100750.16
2023-04-16T22:13:53.667Z,100749.13
2023-04-16T22:16:21.680Z,100757.03
2023-04-16T22:18:50.279Z,100756.09
2023-04-16T22:21:18.761Z,100757.47
2023-04-16T22:23:47.934Z,100758.81
2023-04-16T22:26:16.183Z,100761.50
2023-04-16T22:28:44.628Z,100760.78
2023-04-16T22:31:13.122Z,100762.31
2023-04-16T22:33:41.542Z,100756.47
2023-04-16T22:36:10.413Z,100764.69
2023-04-16T22:38:38.999Z,100762.22
2023-04-16T22:41:07.179Z,100761.69
2023-04-16T22:43:39.467Z,100756.50
2023-04-16T22:46:09.010Z,100759.47
2023-04-16T22:48:39.044Z,100761.28
2023-04-16T22:51:09.135Z,100755.13
2023-04-16T22:53:38.159Z,100760.31
2023-04-16T22:56:06.839Z,100762.09
2023-04-16T22:58:35.035Z,100759.72
2023-04-16T23:01:03.221Z,100764.88
2023-04-16T23:03:31.946Z,100760.31
2023-04-16T23:06:00.434Z,100753.78
2023-04-16T23:08:28.870Z,100762.16
2023-04-16T23:10:57.364Z,100759.63
2023-04-16T23:13:25.831Z,100767.34
2023-04-16T23:15:53.958Z,100764.94
2023-04-16T23:18:22.167Z,100760.66
2023-04-16T23:20:54.494Z,100757.97
2023-04-16T23:23:22.592Z,100765.13
2023-04-16T23:25:54.409Z,100759.94
2023-04-16T23:28:22.846Z,100760.66
2023-04-16T23:30:54.018Z,100766.78
2023-04-16T23:33:22.660Z,100766.63
2023-04-16T23:35:50.804Z,100756.16
2023-04-16T23:38:19.309Z,100759.13
2023-04-16T23:40:47.528Z,100760.78
2023-04-16T23:43:16.087Z,100754.63
2023-04-16T23:45:44.563Z,100757.44
2023-04-16T23:48:12.715Z,100756.91
2023-04-16T23:50:41.260Z,100762.06
2023-04-16T23:53:09.358Z,100755.94
2023-04-16T23:55:37.820Z,100758.38
2023-04-16T23:58:06.242Z,100760.84
